sensor_id;sensor_type;location;lat;lon;timestamp;pressure;altitude;pressure_sealevel;temperature;humidity
6413;BME280;3239;48.714;9.472;2023-03-01T00:01:14;98918.72;;;-0.91;100.00
6413;BME280;3239;48.714;9.472;2023-03-01T00:03:41;98909.16;;;-0.92;100.00
6413;BME280;3239;48.714;9.472;2023-03-01T00:06:07;98918.81;;;-0.94;100.00
6413;BME280;3239;48.714;9.472;2023-03-01T00:08:34;98924.22;;;-0.94;100.00
6413;BME280;3239;48.714;9.472;2023-03-01T00:11:21;98922.28;;;-0.94;100.00
6413;BME280;3239;48.714;9.472;2023-03-01T00:13:51;98923.22;;;-1.00;100.00
6413;BME280;3239;48.714;9.472;2023-03-01T00:16:33;98922.38;;;-1.10;100.00
6413;BME280;3239;48.714;9.472;2023-03-01T00:18:59;98924.53;;;-1.05;100.00
6413;BME280;3239;48.714;9.472;2023-03-01T00:21:26;98923.75;;;-1.05;100.00
6413;BME280;3239;48.714;9.472;2023-03-01T00:23:52;98921.28;;;-1.12;100.00
6413;BME280;3239;48.714;9.472;2023-03-01T00:26:21;98925.06;;;-1.10;100.00
6413;BME280;3239;48.714;9.472;2023-03-01T00:28:47;98921.28;;;-1.12;100.00
6413;BME280;3239;48.714;9.472;2023-03-01T00:31:19;98921.69;;;-1.14;100.00
6413;BME280;3239;48.714;9.472;2023-03-01T00:33:45;98913.31;;;-1.16;100.00
6413;BME280;3239;48.714;9.472;2023-03-01T00:36:14;98913.84;;;-1.21;100.00
6413;BME280;3239;48.714;9.472;2023-03-01T00:38:45;98910.72;;;-1.19;100.00
6413;BME280;3239;48.714;9.472;2023-03-01T00:41:14;98915.56;;;-1.14;100.00
6413;BME280;3239;48.714;9.472;2023-03-01T00:43:41;98907.59;;;-1.18;100.00
6413;BME280;3239;48.714;9.472;2023-03-01T00:46:14;98912.25;;;-1.18;100.00
6413;BME280;3239;48.714;9.472;2023-03-01T00:48:41;98914.16;;;-1.19;100.00
6413;BME280;3239;48.714;9.472;2023-03-01T00:51:11;98908.69;;;-1.15;100.00
6413;BME280;3239;48.714;9.472;2023-03-01T00:53:38;98909.44;;;-1.15;100.00
6413;BME280;3239;48.714;9.472;2023-03-01T00:56:07;98912.13;;;-1.15;100.00
6413;BME280;3239;48.714;9.472;2023-03-01T00:58:34;98916.53;;;-1.08;100.00
6413;BME280;3239;48.714;9.472;2023-03-01T01:01:01;98912.75;;;-1.11;100.00
6413;BME280;3239;48.714;9.472;2023-03-01T01:03:26;98909.66;;;-1.09;100.00
6413;BME280;3239;48.714;9.472;2023-03-01T01:05:52;98908.16;;;-1.10;100.00
6413;BME280;3239;48.714;9.472;2023-03-01T01:08:19;98911.59;;;-1.10;100.00
6413;BME280;3239;48.714;9.472;2023-03-01T01:10:46;98907.38;;;-1.11;100.00
6413;BME280;3239;48.714;9.472;2023-03-01T01:13:12;98905.03;;;-1.09;100.00
6413;BME280;3239;48.714;9.472;2023-03-01T01:15:39;98899.97;;;-1.07;100.00
6413;BME280;3239;48.714;9.472;2023-03-01T01:18:05;98891.72;;;-1.12;100.00
6413;BME280;3239;48.714;9.472;2023-03-01T01:20:32;98887.31;;;-1.06;100.00
6413;BME280;3239;48.714;9.472;2023-03-01T01:22:58;98892.16;;;-1.01;100.00
6413;BME280;3239;48.714;9.472;2023-03-01T01:25:24;98891.28;;;-0.98;100.00
6413;BME280;3239;48.714;9.472;2023-03-01T01:27:52;98885.16;;;-1.11;100.00
6413;BME280;3239;48.714;9.472;2023-03-01T01:30:18;98880.94;;;-1.12;100.00
6413;BME280;3239;48.714;9.472;2023-03-01T01:32:44;98876.53;;;-1.06;100.00
6413;BME280;3239;48.714;9.472;2023-03-01T01:35:09;98881.50;;;-1.05;100.00
6413;BME280;3239;48.714;9.472;2023-03-01T01:37:35;98876.44;;;-1.03;100.00
6413;BME280;3239;48.714;9.472;2023-03-01T01:40:01;98882.78;;;-0.97;100.00
6413;BME280;3239;48.714;9.472;2023-03-01T01:42:31;98872.38;;;-0.95;100.00
6413;BME280;3239;48.714;9.472;2023-03-01T01:47:58;98876.34;;;-0.87;100.00
6413;BME280;3239;48.714;9.472;2023-03-01T01:50:26;98869.88;;;-0.77;100.00
6413;BME280;3239;48.714;9.472;2023-03-01T01:52:53;98879.88;;;-0.77;100.00
6413;BME280;3239;48.714;9.472;2023-03-01T01:55:25;98874.31;;;-0.70;100.00
6413;BME280;3239;48.714;9.472;2023-03-01T01:57:56;98867.63;;;-0.66;100.00
6413;BME280;3239;48.714;9.472;2023-03-01T02:00:27;98863.63;;;-0.62;100.00
6413;BME280;3239;48.714;9.472;2023-03-01T02:03:09;98859.84;;;-0.64;100.00
6413;BME280;3239;48.714;9.472;2023-03-01T02:05:47;98861.28;;;-0.59;100.00
6413;BME280;3239;48.714;9.472;2023-03-01T02:08:20;98853.38;;;-0.54;100.00
6413;BME280;3239;48.714;9.472;2023-03-01T02:10:48;98855.78;;;-0.56;100.00
6413;BME280;3239;48.714;9.472;2023-03-01T02:13:15;98839.94;;;-0.54;100.00
6413;BME280;3239;48.714;9.472;2023-03-01T02:15:41;98837.13;;;-0.51;100.00
6413;BME280;3239;48.714;9.472;2023-03-01T02:18:11;98838.84;;;-0.44;100.00
6413;BME280;3239;48.714;9.472;2023-03-01T02:23:40;98841.09;;;-0.30;100.00
6413;BME280;3239;48.714;9.472;2023-03-01T02:26:25;98830.75;;;-0.32;100.00
6413;BME280;3239;48.714;9.472;2023-03-01T02:28:56;98817.53;;;-0.38;100.00
6413;BME280;3239;48.714;9.472;2023-03-01T02:31:22;98821.09;;;-0.54;100.00
6413;BME280;3239;48.714;9.472;2023-03-01T02:34:15;98821.97;;;-0.57;100.00
6413;BME280;3239;48.714;9.472;2023-03-01T02:36:56;98818.09;;;-0.56;100.00
6413;BME280;3239;48.714;9.472;2023-03-01T02:39:30;98826.91;;;-0.56;100.00
6413;BME280;3239;48.714;9.472;2023-03-01T02:41:58;98827.88;;;-0.49;100.00
6413;BME280;3239;48.714;9.472;2023-03-01T02:44:25;98817.97;;;-0.52;100.00
6413;BME280;3239;48.714;9.472;2023-03-01T02:46:55;98817.13;;;-0.49;100.00
6413;BME280;3239;48.714;9.472;2023-03-01T02:49:33;98817.66;;;-0.42;100.00
6413;BME280;3239;48.714;9.472;2023-03-01T02:55:17;98812.91;;;-0.51;100.00
6413;BME280;3239;48.714;9.472;2023-03-01T02:57:46;98811.69;;;-0.37;100.00
6413;BME280;3239;48.714;9.472;2023-03-01T03:00:30;98814.09;;;-0.52;100.00
6413;BME280;3239;48.714;9.472;2023-03-01T03:02:58;98811.47;;;-0.30;100.00
6413;BME280;3239;48.714;9.472;2023-03-01T03:05:29;98794.00;;;-0.26;100.00
6413;BME280;3239;48.714;9.472;2023-03-01T03:07:55;98788.19;;;-0.24;100.00
6413;BME280;3239;48.714;9.472;2023-03-01T03:10:28;98789.25;;;-0.22;100.00
6413;BME280;3239;48.714;9.472;2023-03-01T03:13:04;98786.63;;;-0.13;100.00
6413;BME280;3239;48.714;9.472;2023-03-01T03:15:31;98786.31;;;-0.15;100.00
6413;BME280;3239;48.714;9.472;2023-03-01T03:17:58;98787.16;;;-0.05;100.00
6413;BME280;3239;48.714;9.472;2023-03-01T03:20:27;98782.94;;;-0.06;100.00
6413;BME280;3239;48.714;9.472;2023-03-01T03:22:55;98774.41;;;-0.05;100.00
6413;BME280;3239;48.714;9.472;2023-03-01T03:25:22;98771.94;;;0.01;100.00
6413;BME280;3239;48.714;9.472;2023-03-01T03:27:50;98774.75;;;-0.03;100.00
6413;BME280;3239;48.714;9.472;2023-03-01T03:30:32;98770.44;;;0.00;100.00
6413;BME280;3239;48.714;9.472;2023-03-01T03:32:59;98773.00;;;0.03;100.00
6413;BME280;3239;48.714;9.472;2023-03-01T03:35:38;98775.56;;;0.07;100.00
6413;BME280;3239;48.714;9.472;2023-03-01T03:38:09;98774.63;;;0.01;100.00
6413;BME280;3239;48.714;9.472;2023-03-01T03:40:46;98768.53;;;0.09;100.00
6413;BME280;3239;48.714;9.472;2023-03-01T03:43:16;98764.50;;;0.14;100.00
6413;BME280;3239;48.714;9.472;2023-03-01T03:45:48;98781.44;;;0.14;100.00
6413;BME280;3239;48.714;9.472;2023-03-01T03:48:15;98767.28;;;0.01;100.00
6413;BME280;3239;48.714;9.472;2023-03-01T03:50:42;98766.72;;;0.06;100.00
6413;BME280;3239;48.714;9.472;2023-03-01T03:53:13;98772.72;;;0.10;100.00
6413;BME280;3239;48.714;9.472;2023-03-01T03:55:39;98765.28;;;0.14;100.00
6413;BME280;3239;48.714;9.472;2023-03-01T03:58:08;98765.44;;;0.20;100.00
6413;BME280;3239;48.714;9.472;2023-03-01T04:00:38;98758.88;;;0.21;100.00
6413;BME280;3239;48.714;9.472;2023-03-01T04:03:04;98754.81;;;0.16;100.00
6413;BME280;3239;48.714;9.472;2023-03-01T04:05:31;98757.72;;;0.31;100.00
6413;BME280;3239;48.714;9.472;2023-03-01T04:07:57;98759.06;;;0.26;100.00
6413;BME280;3239;48.714;9.472;2023-03-01T04:10:40;98747.41;;;0.29;100.00
6413;BME280;3239;48.714;9.472;2023-03-01T04:13:08;98738.75;;;0.34;100.00
6413;BME280;3239;48.714;9.472;2023-03-01T04:15:34;98740.19;;;0.26;100.00
6413;BME280;3239;48.714;9.472;2023-03-01T04:18:00;98734.50;;;0.24;100.00
6413;BME280;3239;48.714;9.472;2023-03-01T04:20:29;98735.38;;;0.21;100.00
6413;BME280;3239;48.714;9.472;2023-03-01T04:23:06;98735.69;;;0.23;100.00
6413;BME280;3239;48.714;9.472;2023-03-01T04:26:01;98736.56;;;0.20;100.00
6413;BME280;3239;48.714;9.472;2023-03-01T04:28:29;98745.22;;;0.15;100.00
6413;BME280;3239;48.714;9.472;2023-03-01T04:30:58;98745.09;;;0.19;100.00
6413;BME280;3239;48.714;9.472;2023-03-01T04:33:25;98733.13;;;0.20;100.00
6413;BME280;3239;48.714;9.472;2023-03-01T04:35:51;98742.47;;;0.28;100.00
6413;BME280;3239;48.714;9.472;2023-03-01T04:38:18;98743.31;;;0.25;100.00
6413;BME280;3239;48.714;9.472;2023-03-01T04:40:44;98737.81;;;0.28;100.00
6413;BME280;3239;48.714;9.472;2023-03-01T04:43:12;98735.25;;;0.25;100.00
6413;BME280;3239;48.714;9.472;2023-03-01T04:45:41;98731.25;;;0.29;100.00
6413;BME280;3239;48.714;9.472;2023-03-01T04:48:06;98732.25;;;0.23;100.00
6413;BME280;3239;48.714;9.472;2023-03-01T04:50:32;98742.69;;;0.21;100.00
6413;BME280;3239;48.714;9.472;2023-03-01T04:52:58;98736.31;;;0.27;100.00
6413;BME280;3239;48.714;9.472;2023-03-01T04:55:26;98745.28;;;0.24;100.00
6413;BME280;3239;48.714;9.472;2023-03-01T04:57:52;98737.38;;;0.30;100.00
6413;BME280;3239;48.714;9.472;2023-03-01T05:00:19;98731.69;;;0.28;100.00
6413;BME280;3239;48.714;9.472;2023-03-01T05:02:56;98724.94;;;0.32;100.00
6413;BME280;3239;48.714;9.472;2023-03-01T05:05:31;98732.41;;;0.28;100.00
6413;BME280;3239;48.714;9.472;2023-03-01T05:08:01;98719.41;;;0.27;100.00
6413;BME280;3239;48.714;9.472;2023-03-01T05:10:30;98724.16;;;0.23;100.00
6413;BME280;3239;48.714;9.472;2023-03-01T05:12:57;98728.22;;;0.27;100.00
6413;BME280;3239;48.714;9.472;2023-03-01T05:15:25;98717.84;;;0.17;100.00
6413;BME280;3239;48.714;9.472;2023-03-01T05:17:53;98718.34;;;0.24;100.00
6413;BME280;3239;48.714;9.472;2023-03-01T05:20:20;98722.97;;;0.24;100.00
6413;BME280;3239;48.714;9.472;2023-03-01T05:22:49;98720.72;;;0.22;100.00
6413;BME280;3239;48.714;9.472;2023-03-01T05:25:15;98727.59;;;0.23;100.00
6413;BME280;3239;48.714;9.472;2023-03-01T05:27:42;98728.50;;;0.20;100.00
6413;BME280;3239;48.714;9.472;2023-03-01T05:30:09;98725.03;;;0.20;100.00
6413;BME280;3239;48.714;9.472;2023-03-01T05:32:47;98726.88;;;0.23;100.00
6413;BME280;3239;48.714;9.472;2023-03-01T05:35:16;98724.16;;;0.23;100.00
6413;BME280;3239;48.714;9.472;2023-03-01T05:37:45;98726.03;;;0.35;100.00
6413;BME280;3239;48.714;9.472;2023-03-01T05:40:14;98722.44;;;0.38;100.00
6413;BME280;3239;48.714;9.472;2023-03-01T05:42:45;98723.66;;;0.37;100.00
6413;BME280;3239;48.714;9.472;2023-03-01T05:45:13;98714.03;;;0.36;100.00
6413;BME280;3239;48.714;9.472;2023-03-01T05:47:41;98725.59;;;0.36;100.00
6413;BME280;3239;48.714;9.472;2023-03-01T05:50:20;98725.16;;;0.38;100.00
6413;BME280;3239;48.714;9.472;2023-03-01T05:52:49;98721.69;;;0.37;100.00
6413;BME280;3239;48.714;9.472;2023-03-01T05:55:18;98726.03;;;0.35;100.00
6413;BME280;3239;48.714;9.472;2023-03-01T05:57:45;98722.44;;;0.38;100.00
6413;BME280;3239;48.714;9.472;2023-03-01T06:00:14;98716.59;;;0.39;100.00
6413;BME280;3239;48.714;9.472;2023-03-01T06:02:40;98716.44;;;0.34;100.00
6413;BME280;3239;48.714;9.472;2023-03-01T06:05:08;98721.03;;;0.24;100.00
6413;BME280;3239;48.714;9.472;2023-03-01T06:07:35;98721.47;;;0.23;100.00
6413;BME280;3239;48.714;9.472;2023-03-01T06:10:03;98730.63;;;0.25;100.00
6413;BME280;3239;48.714;9.472;2023-03-01T06:12:34;98706.66;;;0.27;100.00
6413;BME280;3239;48.714;9.472;2023-03-01T06:15:00;98712.38;;;0.29;100.00
6413;BME280;3239;48.714;9.472;2023-03-01T06:17:29;98717.50;;;0.36;100.00
6413;BME280;3239;48.714;9.472;2023-03-01T06:19:55;98720.69;;;0.44;100.00
6413;BME280;3239;48.714;9.472;2023-03-01T06:22:21;98714.50;;;0.34;100.00
6413;BME280;3239;48.714;9.472;2023-03-01T06:24:47;98714.19;;;0.32;100.00
6413;BME280;3239;48.714;9.472;2023-03-01T06:27:13;98719.91;;;0.34;100.00
6413;BME280;3239;48.714;9.472;2023-03-01T06:29:38;98714.38;;;0.38;100.00
6413;BME280;3239;48.714;9.472;2023-03-01T06:32:04;98711.34;;;0.36;100.00
6413;BME280;3239;48.714;9.472;2023-03-01T06:34:30;98722.44;;;0.38;100.00
6413;BME280;3239;48.714;9.472;2023-03-01T06:36:56;98715.28;;;0.44;100.00
6413;BME280;3239;48.714;9.472;2023-03-01T06:39:22;98723.09;;;0.51;100.00
6413;BME280;3239;48.714;9.472;2023-03-01T06:41:48;98720.41;;;0.51;100.00
6413;BME280;3239;48.714;9.472;2023-03-01T06:44:13;98719.69;;;0.59;100.00
6413;BME280;3239;48.714;9.472;2023-03-01T06:46:40;98712.84;;;0.76;100.00
6413;BME280;3239;48.714;9.472;2023-03-01T06:49:06;98716.81;;;0.93;100.00
6413;BME280;3239;48.714;9.472;2023-03-01T06:51:36;98713.38;;;1.02;100.00
6413;BME280;3239;48.714;9.472;2023-03-01T06:54:04;98712.47;;;1.05;100.00
6413;BME280;3239;48.714;9.472;2023-03-01T06:56:31;98713.09;;;1.18;100.00
6413;BME280;3239;48.714;9.472;2023-03-01T06:58:57;98701.41;;;1.30;100.00
6413;BME280;3239;48.714;9.472;2023-03-01T07:01:23;98701.28;;;1.42;100.00
6413;BME280;3239;48.714;9.472;2023-03-01T07:03:49;98699.63;;;1.72;100.00
6413;BME280;3239;48.714;9.472;2023-03-01T07:06:14;98706.53;;;1.82;100.00
6413;BME280;3239;48.714;9.472;2023-03-01T07:08:40;98692.41;;;1.96;100.00
6413;BME280;3239;48.714;9.472;2023-03-01T07:11:06;98697.97;;;1.83;100.00
6413;BME280;3239;48.714;9.472;2023-03-01T07:13:32;98697.84;;;2.28;100.00
6413;BME280;3239;48.714;9.472;2023-03-01T07:15:58;98688.75;;;2.17;100.00
6413;BME280;3239;48.714;9.472;2023-03-01T07:18:24;98702.28;;;2.08;100.00
6413;BME280;3239;48.714;9.472;2023-03-01T07:20:50;98698.78;;;2.25;100.00
6413;BME280;3239;48.714;9.472;2023-03-01T07:23:16;98690.28;;;2.50;100.00
6413;BME280;3239;48.714;9.472;2023-03-01T07:25:41;98684.78;;;2.68;100.00
6413;BME280;3239;48.714;9.472;2023-03-01T07:28:07;98688.47;;;2.56;100.00
6413;BME280;3239;48.714;9.472;2023-03-01T07:30:33;98681.34;;;3.15;100.00
6413;BME280;3239;48.714;9.472;2023-03-01T07:32:59;98681.53;;;3.11;100.00
6413;BME280;3239;48.714;9.472;2023-03-01T07:35:26;98674.66;;;3.48;100.00
6413;BME280;3239;48.714;9.472;2023-03-01T07:37:52;98681.50;;;3.58;100.00
6413;BME280;3239;48.714;9.472;2023-03-01T07:40:19;98667.94;;;3.58;100.00
6413;BME280;3239;48.714;9.472;2023-03-01T07:42:45;98670.19;;;3.60;100.00
6413;BME280;3239;48.714;9.472;2023-03-01T07:45:11;98669.88;;;3.58;100.00
6413;BME280;3239;48.714;9.472;2023-03-01T07:47:39;98665.47;;;3.46;100.00
6413;BME280;3239;48.714;9.472;2023-03-01T07:50:05;98668.00;;;3.49;100.00
6413;BME280;3239;48.714;9.472;2023-03-01T07:52:31;98659.34;;;3.60;100.00
6413;BME280;3239;48.714;9.472;2023-03-01T07:54:57;98656.47;;;3.25;100.00
6413;BME280;3239;48.714;9.472;2023-03-01T07:57:23;98650.06;;;3.37;100.00
6413;BME280;3239;48.714;9.472;2023-03-01T07:59:49;98653.75;;;4.21;100.00
6413;BME280;3239;48.714;9.472;2023-03-01T08:02:15;98648.75;;;4.49;100.00
6413;BME280;3239;48.714;9.472;2023-03-01T08:04:42;98651.28;;;4.38;100.00
6413;BME280;3239;48.714;9.472;2023-03-01T08:07:08;98647.97;;;3.99;100.00
6413;BME280;3239;48.714;9.472;2023-03-01T08:09:37;98642.53;;;3.56;100.00
6413;BME280;3239;48.714;9.472;2023-03-01T08:12:04;98647.38;;;4.39;100.00
6413;BME280;3239;48.714;9.472;2023-03-01T08:14:32;98646.34;;;5.05;100.00
6413;BME280;3239;48.714;9.472;2023-03-01T08:16:57;98650.94;;;4.79;100.00
6413;BME280;3239;48.714;9.472;2023-03-01T08:19:23;98651.75;;;5.05;100.00
6413;BME280;3239;48.714;9.472;2023-03-01T08:21:50;98643.25;;;4.78;100.00
6413;BME280;3239;48.714;9.472;2023-03-01T08:24:15;98647.25;;;4.62;100.00
6413;BME280;3239;48.714;9.472;2023-03-01T08:26:41;98644.03;;;4.64;100.00
6413;BME280;3239;48.714;9.472;2023-03-01T08:29:07;98643.28;;;3.85;100.00
6413;BME280;3239;48.714;9.472;2023-03-01T08:31:36;98640.78;;;4.60;100.00
6413;BME280;3239;48.714;9.472;2023-03-01T08:34:07;98636.28;;;5.11;100.00
6413;BME280;3239;48.714;9.472;2023-03-01T08:36:41;98636.38;;;4.82;100.00
6413;BME280;3239;48.714;9.472;2023-03-01T08:39:10;98635.56;;;4.42;100.00
6413;BME280;3239;48.714;9.472;2023-03-01T08:41:36;98630.13;;;4.76;100.00
6413;BME280;3239;48.714;9.472;2023-03-01T08:44:03;98635.88;;;4.78;100.00
6413;BME280;3239;48.714;9.472;2023-03-01T08:46:35;98631.50;;;5.46;100.00
6413;BME280;3239;48.714;9.472;2023-03-01T08:49:04;98634.88;;;6.12;100.00
6413;BME280;3239;48.714;9.472;2023-03-01T08:51:31;98627.22;;;5.40;100.00
6413;BME280;3239;48.714;9.472;2023-03-01T08:54:03;98624.38;;;6.31;99.09
6413;BME280;3239;48.714;9.472;2023-03-01T08:56:30;98635.09;;;6.09;89.05
6413;BME280;3239;48.714;9.472;2023-03-01T08:58:56;98624.75;;;6.13;90.32
6413;BME280;3239;48.714;9.472;2023-03-01T09:01:22;98616.03;;;6.40;88.06
6413;BME280;3239;48.714;9.472;2023-03-01T09:03:48;98617.63;;;5.70;97.44
6413;BME280;3239;48.714;9.472;2023-03-01T09:06:14;98617.78;;;5.81;91.74
6413;BME280;3239;48.714;9.472;2023-03-01T09:08:46;98607.38;;;6.41;87.17
6413;BME280;3239;48.714;9.472;2023-03-01T09:11:16;98596.91;;;6.29;86.43
6413;BME280;3239;48.714;9.472;2023-03-01T09:13:44;98599.03;;;6.14;83.41
6413;BME280;3239;48.714;9.472;2023-03-01T09:16:12;98596.84;;;5.87;88.64
6413;BME280;3239;48.714;9.472;2023-03-01T09:18:38;98598.66;;;6.74;89.84
6413;BME280;3239;48.714;9.472;2023-03-01T09:21:12;98606.22;;;8.20;77.49
6413;BME280;3239;48.714;9.472;2023-03-01T09:23:42;98591.50;;;7.51;72.33
6413;BME280;3239;48.714;9.472;2023-03-01T09:26:16;98594.75;;;7.61;72.89
6413;BME280;3239;48.714;9.472;2023-03-01T09:28:43;98591.84;;;6.53;76.36
6413;BME280;3239;48.714;9.472;2023-03-01T09:31:10;98586.53;;;6.75;79.82
6413;BME280;3239;48.714;9.472;2023-03-01T09:33:39;98595.34;;;6.59;79.73
6413;BME280;3239;48.714;9.472;2023-03-01T09:36:11;98580.88;;;6.36;79.25
6413;BME280;3239;48.714;9.472;2023-03-01T09:38:38;98587.00;;;7.32;74.85
6413;BME280;3239;48.714;9.472;2023-03-01T09:41:28;98581.38;;;7.85;67.23
6413;BME280;3239;48.714;9.472;2023-03-01T09:44:03;98581.38;;;6.40;71.71
6413;BME280;3239;48.714;9.472;2023-03-01T09:46:35;98578.81;;;6.68;76.68
6413;BME280;3239;48.714;9.472;2023-03-01T09:49:10;98577.41;;;7.64;72.51
6413;BME280;3239;48.714;9.472;2023-03-01T09:51:37;98573.19;;;8.12;68.19
6413;BME280;3239;48.714;9.472;2023-03-01T09:54:05;98570.66;;;7.43;67.19
6413;BME280;3239;48.714;9.472;2023-03-01T09:56:41;98567.97;;;7.54;66.01
6413;BME280;3239;48.714;9.472;2023-03-01T09:59:54;98570.22;;;7.50;70.92
6413;BME280;3239;48.714;9.472;2023-03-01T10:05:31;98570.72;;;7.81;70.72
6413;BME280;3239;48.714;9.472;2023-03-01T10:08:50;98562.78;;;7.72;65.12
6413;BME280;3239;48.714;9.472;2023-03-01T10:11:22;98548.63;;;8.45;61.69
6413;BME280;3239;48.714;9.472;2023-03-01T10:14:01;98548.41;;;8.05;65.07
6413;BME280;3239;48.714;9.472;2023-03-01T10:16:43;98537.59;;;9.30;59.87
6413;BME280;3239;48.714;9.472;2023-03-01T10:19:23;98537.81;;;9.32;60.49
6413;BME280;3239;48.714;9.472;2023-03-01T10:21:51;98525.53;;;8.46;58.28
6413;BME280;3239;48.714;9.472;2023-03-01T10:24:19;98524.22;;;8.64;60.35
6413;BME280;3239;48.714;9.472;2023-03-01T10:26:57;98523.00;;;9.57;56.69
6413;BME280;3239;48.714;9.472;2023-03-01T10:29:37;98525.34;;;9.77;56.44
6413;BME280;3239;48.714;9.472;2023-03-01T10:32:05;98528.53;;;10.10;55.53
6413;BME280;3239;48.714;9.472;2023-03-01T10:34:35;98524.22;;;10.87;51.82
6413;BME280;3239;48.714;9.472;2023-03-01T10:37:12;98530.56;;;10.58;51.86
6413;BME280;3239;48.714;9.472;2023-03-01T10:42:39;98518.78;;;9.56;54.02
6413;BME280;3239;48.714;9.472;2023-03-01T10:48:12;98513.78;;;10.67;50.86
6413;BME280;3239;48.714;9.472;2023-03-01T10:50:47;98505.81;;;9.91;52.77
6413;BME280;3239;48.714;9.472;2023-03-01T10:53:41;98504.91;;;11.35;49.90
6413;BME280;3239;48.714;9.472;2023-03-01T10:56:13;98499.28;;;11.27;48.63
6413;BME280;3239;48.714;9.472;2023-03-01T10:59:04;98485.94;;;11.18;47.81
6413;BME280;3239;48.714;9.472;2023-03-01T11:01:33;98484.16;;;11.71;46.55
6413;BME280;3239;48.714;9.472;2023-03-01T11:06:34;98491.03;;;10.53;49.96
6413;BME280;3239;48.714;9.472;2023-03-01T11:09:23;98478.84;;;11.60;47.54
6413;BME280;3239;48.714;9.472;2023-03-01T11:11:57;98473.66;;;12.01;45.27
6413;BME280;3239;48.714;9.472;2023-03-01T11:14:29;98471.44;;;11.36;44.92
6413;BME280;3239;48.714;9.472;2023-03-01T11:17:21;98465.28;;;12.84;43.44
6413;BME280;3239;48.714;9.472;2023-03-01T11:22:34;98461.28;;;11.94;44.45
6413;BME280;3239;48.714;9.472;2023-03-01T11:25:01;98456.75;;;10.84;45.62
6413;BME280;3239;48.714;9.472;2023-03-01T11:27:32;98447.44;;;12.65;44.06
6413;BME280;3239;48.714;9.472;2023-03-01T11:32:56;98443.59;;;11.64;45.62
6413;BME280;3239;48.714;9.472;2023-03-01T11:35:28;98442.03;;;12.72;44.15
6413;BME280;3239;48.714;9.472;2023-03-01T11:38:26;98436.38;;;12.44;44.35
6413;BME280;3239;48.714;9.472;2023-03-01T11:41:14;98414.06;;;13.48;40.96
6413;BME280;3239;48.714;9.472;2023-03-01T11:49:51;98421.75;;;13.63;42.93
6413;BME280;3239;48.714;9.472;2023-03-01T11:58:45;98409.00;;;16.74;34.36
6413;BME280;3239;48.714;9.472;2023-03-01T12:01:21;98412.78;;;13.29;38.39
6413;BME280;3239;48.714;9.472;2023-03-01T12:14:20;98378.59;;;14.49;37.97
6413;BME280;3239;48.714;9.472;2023-03-01T12:25:43;98355.22;;;16.60;34.63
6413;BME280;3239;48.714;9.472;2023-03-01T12:28:24;98357.56;;;17.28;33.34
6413;BME280;3239;48.714;9.472;2023-03-01T12:44:04;98305.06;;;19.36;30.71
6413;BME280;3239;48.714;9.472;2023-03-01T12:47:02;98309.47;;;17.99;30.51
6413;BME280;3239;48.714;9.472;2023-03-01T12:49:41;98307.19;;;15.04;34.75
6413;BME280;3239;48.714;9.472;2023-03-01T12:55:35;98296.81;;;18.22;31.79
6413;BME280;3239;48.714;9.472;2023-03-01T12:58:24;98301.50;;;19.90;30.09
6413;BME280;3239;48.714;9.472;2023-03-01T13:06:44;98282.31;;;20.42;27.71
6413;BME280;3239;48.714;9.472;2023-03-01T13:11:53;98285.31;;;15.21;34.13
6413;BME280;3239;48.714;9.472;2023-03-01T13:16:52;98280.09;;;16.71;34.32
6413;BME280;3239;48.714;9.472;2023-03-01T13:19:23;98282.72;;;17.60;32.63
6413;BME280;3239;48.714;9.472;2023-03-01T13:21:53;98273.22;;;18.74;31.32
6413;BME280;3239;48.714;9.472;2023-03-01T13:24:35;98285.63;;;20.78;28.44
6413;BME280;3239;48.714;9.472;2023-03-01T13:27:23;98280.00;;;18.37;30.41
6413;BME280;3239;48.714;9.472;2023-03-01T13:29:59;98282.97;;;16.49;33.17
6413;BME280;3239;48.714;9.472;2023-03-01T13:32:30;98278.03;;;18.47;30.90
6413;BME280;3239;48.714;9.472;2023-03-01T13:37:42;98266.84;;;17.36;31.74
6413;BME280;3239;48.714;9.472;2023-03-01T13:42:44;98257.59;;;19.15;29.50
6413;BME280;3239;48.714;9.472;2023-03-01T13:47:43;98264.88;;;18.04;29.78
6413;BME280;3239;48.714;9.472;2023-03-01T13:50:23;98265.78;;;17.90;30.34
6413;BME280;3239;48.714;9.472;2023-03-01T13:53:05;98260.25;;;17.90;30.87
6413;BME280;3239;48.714;9.472;2023-03-01T13:55:36;98262.84;;;19.75;29.65
6413;BME280;3239;48.714;9.472;2023-03-01T13:58:22;98251.59;;;19.73;28.49
6413;BME280;3239;48.714;9.472;2023-03-01T14:01:06;98238.34;;;18.81;29.39
6413;BME280;3239;48.714;9.472;2023-03-01T14:03:40;98239.44;;;19.50;29.28
6413;BME280;3239;48.714;9.472;2023-03-01T14:06:16;98245.97;;;17.18;32.70
6413;BME280;3239;48.714;9.472;2023-03-01T14:08:45;98250.72;;;16.76;32.65
6413;BME280;3239;48.714;9.472;2023-03-01T14:14:08;98261.19;;;20.58;28.58
6413;BME280;3239;48.714;9.472;2023-03-01T14:19:32;98278.00;;;16.00;33.91
6413;BME280;3239;48.714;9.472;2023-03-01T14:22:25;98272.78;;;17.32;32.12
6413;BME280;3239;48.714;9.472;2023-03-01T14:25:06;98274.97;;;18.70;31.12
6413;BME280;3239;48.714;9.472;2023-03-01T14:27:43;98274.38;;;16.69;32.73
6413;BME280;3239;48.714;9.472;2023-03-01T14:30:43;98267.50;;;14.26;34.88
6413;BME280;3239;48.714;9.472;2023-03-01T14:33:40;98281.06;;;17.40;33.02
6413;BME280;3239;48.714;9.472;2023-03-01T14:36:12;98274.66;;;16.56;32.28
6413;BME280;3239;48.714;9.472;2023-03-01T14:38:42;98277.53;;;18.58;31.04
6413;BME280;3239;48.714;9.472;2023-03-01T14:41:15;98290.66;;;20.42;28.90
6413;BME280;3239;48.714;9.472;2023-03-01T14:44:03;98291.94;;;17.38;30.67
6413;BME280;3239;48.714;9.472;2023-03-01T14:46:36;98280.31;;;15.64;33.26
6413;BME280;3239;48.714;9.472;2023-03-01T14:49:14;98286.00;;;15.74;34.12
6413;BME280;3239;48.714;9.472;2023-03-01T14:51:52;98285.41;;;16.45;33.85
6413;BME280;3239;48.714;9.472;2023-03-01T14:54:35;98273.84;;;17.44;31.83
6413;BME280;3239;48.714;9.472;2023-03-01T14:57:04;98277.84;;;16.45;33.32
6413;BME280;3239;48.714;9.472;2023-03-01T14:59:30;98272.19;;;16.28;33.29
6413;BME280;3239;48.714;9.472;2023-03-01T15:01:58;98266.19;;;17.28;32.78
6413;BME280;3239;48.714;9.472;2023-03-01T15:04:26;98263.50;;;17.37;32.41
6413;BME280;3239;48.714;9.472;2023-03-01T15:06:54;98261.59;;;17.47;31.92
6413;BME280;3239;48.714;9.472;2023-03-01T15:09:21;98275.84;;;16.31;32.93
6413;BME280;3239;48.714;9.472;2023-03-01T15:11:49;98269.81;;;14.88;34.83
6413;BME280;3239;48.714;9.472;2023-03-01T15:14:42;98286.13;;;16.45;33.48
6413;BME280;3239;48.714;9.472;2023-03-01T15:17:36;98257.38;;;17.22;32.82
6413;BME280;3239;48.714;9.472;2023-03-01T15:20:18;98268.13;;;15.75;33.32